createdAt,value
2023-05-21T00:01:26.486Z,99312.66
2023-05-21T00:04:15.781Z,99309.56
2023-05-21T00:07:05.185Z,99297.03
2023-05-21T00:09:53.000Z,99301.00
2023-05-21T00:12:41.795Z,99304.44
2023-05-21T00:15:29.962Z,99276.84
2023-05-21T00:18:18.292Z,99299.06
2023-05-21T00:21:06.765Z,99293.47
2023-05-21T00:23:56.895Z,99278.69
2023-05-21T00:26:44.884Z,99287.19
2023-05-21T00:29:32.697Z,99250.72
2023-05-21T00:32:20.476Z,99276.50
2023-05-21T00:35:09.425Z,99266.72
2023-05-21T00:37:57.510Z,99273.78
2023-05-21T00:40:46.634Z,99276.94
2023-05-21T00:43:34.485Z,99274.72
2023-05-21T00:46:23.173Z,99269.81
2023-05-21T00:49:11.776Z,99273.06
2023-05-21T00:52:01.637Z,99261.88
2023-05-21T00:54:50.899Z,99255.19
2023-05-21T00:57:41.404Z,99258.56
2023-05-21T01:00:29.430Z,99254.75
2023-05-21T01:03:17.548Z,99212.53
2023-05-21T01:06:06.314Z,99260.59
2023-05-21T01:08:56.323Z,99251.13
2023-05-21T01:11:47.731Z,99260.13
2023-05-21T01:14:38.642Z,99247.97
2023-05-21T01:17:27.697Z,99249.38
2023-05-21T01:20:18.356Z,99254.25
2023-05-21T01:23:07.801Z,99259.94
2023-05-21T01:25:55.702Z,99238.38
2023-05-21T01:28:43.483Z,99257.88
2023-05-21T01:31:39.149Z,99250.75
2023-05-21T01:34:33.955Z,99250.53
2023-05-21T01:37:27.627Z,99250.34
2023-05-21T01:40:24.643Z,99244.47
2023-05-21T01:43:13.946Z,99239.19
2023-05-21T01:46:02.999Z,99240.75
2023-05-21T01:48:52.281Z,99219.81
2023-05-21T01:51:40.384Z,99233.97
2023-05-21T01:54:27.978Z,99235.41
2023-05-21T01:57:17.335Z,99236.66
2023-05-21T02:00:06.327Z,99241.25
2023-05-21T02:02:54.121Z,99232.94
2023-05-21T02:05:42.082Z,99241.88
2023-05-21T02:08:29.788Z,99237.03
2023-05-21T02:11:17.614Z,99242.13
2023-05-21T02:14:08.087Z,99246.53
2023-05-21T02:16:56.837Z,99248.56
2023-05-21T02:19:44.926Z,99243.66
2023-05-21T02:22:32.688Z,99236.34
2023-05-21T02:25:20.877Z,99233.31
2023-05-21T02:28:08.630Z,99236.47
2023-05-21T02:30:58.177Z,99232.66
2023-05-21T02:33:46.414Z,99235.03
2023-05-21T02:36:36.212Z,99238.28
2023-05-21T02:39:23.923Z,99241.19
2023-05-21T02:42:11.757Z,99240.44
2023-05-21T02:44:59.511Z,99240.06
2023-05-21T02:47:48.653Z,99241.47
2023-05-21T02:50:36.351Z,99232.91
2023-05-21T02:53:24.022Z,99236.72
2023-05-21T02:56:12.647Z,99240.34
2023-05-21T02:59:00.576Z,99235.19
2023-05-21T03:01:48.288Z,99240.78
2023-05-21T03:04:39.188Z,99230.75
2023-05-21T03:07:27.082Z,99227.94
2023-05-21T03:10:14.844Z,99232.81
2023-05-21T03:13:05.684Z,99228.72
2023-05-21T03:15:56.662Z,99225.56
2023-05-21T03:18:44.377Z,99240.94
2023-05-21T03:21:33.868Z,99234.34
2023-05-21T03:24:21.589Z,99244.84
2023-05-21T03:27:09.454Z,99216.84
2023-05-21T03:29:57.691Z,99243.56
2023-05-21T03:32:46.039Z,99241.16
2023-05-21T03:35:34.291Z,99236.28
2023-05-21T03:38:23.420Z,99238.84
2023-05-21T03:41:11.946Z,99240.50
2023-05-21T03:43:59.684Z,99243.91
2023-05-21T03:46:47.439Z,99240.19
2023-05-21T03:49:35.154Z,99243.22
2023-05-21T03:52:23.011Z,99244.81
2023-05-21T03:55:12.539Z,99234.22
2023-05-21T03:58:00.539Z,99241.88
2023-05-21T04:00:48.385Z,99238.28
2023-05-21T04:03:37.965Z,99238.88
2023-05-21T04:06:28.119Z,99241.38
2023-05-21T04:09:16.510Z,99236.97
2023-05-21T04:12:06.305Z,99243.44
2023-05-21T04:14:54.008Z,99259.09
2023-05-21T04:17:41.787Z,99261.66
2023-05-21T04:20:29.701Z,99246.69
2023-05-21T04:23:17.659Z,99265.53
2023-05-21T04:26:05.839Z,99270.72
2023-05-21T04:28:59.434Z,99267.28
2023-05-21T04:31:47.149Z,99273.00
2023-05-21T04:34:34.950Z,99267.22
2023-05-21T04:37:24.696Z,99269.75
2023-05-21T04:40:18.246Z,99275.34
2023-05-21T04:43:06.030Z,99276.00
2023-05-21T04:45:55.653Z,99269.63
2023-05-21T04:48:43.431Z,99277.88
2023-05-21T04:51:31.305Z,99257.72
2023-05-21T04:54:19.022Z,99285.63
2023-05-21T04:57:07.340Z,99284.16
2023-05-21T04:59:55.225Z,99283.50
2023-05-21T05:02:44.427Z,99290.72
2023-05-21T05:05:32.229Z,99288.22
2023-05-21T05:08:19.913Z,99280.56
2023-05-21T05:11:07.569Z,99292.84
2023-05-21T05:13:55.352Z,99290.81
2023-05-21T05:16:43.095Z,99281.44
2023-05-21T05:19:32.549Z,99280.75
2023-05-21T05:22:20.351Z,99218.00
2023-05-21T05:25:08.598Z,99287.47
2023-05-21T05:27:56.349Z,99283.44
2023-05-21T05:30:44.168Z,99285.00
2023-05-21T05:33:31.947Z,99290.16
2023-05-21T05:36:21.255Z,99292.84
2023-05-21T05:39:08.978Z,99290.84
2023-05-21T05:41:56.664Z,99297.03
2023-05-21T05:44:44.387Z,99286.09
2023-05-21T05:47:33.434Z,99249.22
2023-05-21T05:50:21.301Z,99288.63
2023-05-21T05:53:13.246Z,99293.50
2023-05-21T05:56:01.223Z,99290.81
2023-05-21T05:58:48.942Z,99285.41
2023-05-21T06:01:36.672Z,99286.75
2023-05-21T06:04:24.457Z,99281.19
2023-05-21T06:07:12.202Z,99266.94
2023-05-21T06:10:01.327Z,99276.19
2023-05-21T06:12:49.331Z,99279.69
2023-05-21T06:15:37.186Z,99285.53
2023-05-21T06:18:25.115Z,99300.56
2023-05-21T06:21:12.889Z,99293.59
2023-05-21T06:24:01.085Z,99294.13
2023-05-21T06:26:50.170Z,99300.00
2023-05-21T06:29:37.943Z,99299.50
2023-05-21T06:32:25.895Z,99294.13
2023-05-21T06:35:13.711Z,99291.63
2023-05-21T06:38:01.692Z,99295.63
2023-05-21T06:40:49.640Z,99299.53
2023-05-21T06:43:38.667Z,99292.16
2023-05-21T06:46:26.427Z,99295.34
2023-05-21T06:49:15.101Z,99283.44
2023-05-21T06:52:03.277Z,99296.19
2023-05-21T06:54:51.197Z,99286.28
2023-05-21T06:57:39.684Z,99288.44
2023-05-21T07:00:28.849Z,99287.38
2023-05-21T07:03:17.422Z,99291.25
2023-05-21T07:06:05.497Z,99291.72
2023-05-21T07:08:53.209Z,99296.13
2023-05-21T07:11:40.969Z,99275.28
2023-05-21T07:14:28.692Z,99283.28
2023-05-21T07:17:17.841Z,99268.28
2023-05-21T07:20:07.801Z,99289.03
2023-05-21T07:22:55.631Z,99281.41
2023-05-21T07:25:43.511Z,99281.72
2023-05-21T07:28:31.219Z,99285.97
2023-05-21T07:31:19.015Z,99289.63
2023-05-21T07:34:08.152Z,99276.63
2023-05-21T07:36:55.929Z,99285.50
2023-05-21T07:39:43.650Z,99297.66
2023-05-21T07:42:32.167Z,99287.56
2023-05-21T07:45:19.897Z,99296.63
2023-05-21T07:48:08.177Z,99252.59
2023-05-21T07:50:58.266Z,99282.44
2023-05-21T07:53:45.986Z,99282.31
2023-05-21T07:56:33.675Z,99286.97
2023-05-21T07:59:21.388Z,99279.56
2023-05-21T08:02:09.217Z,99291.66
2023-05-21T08:04:57.761Z,99295.84
2023-05-21T08:07:47.245Z,99288.84
2023-05-21T08:10:35.048Z,99290.16
2023-05-21T08:13:23.250Z,99266.22
2023-05-21T08:16:11.476Z,99299.16
2023-05-21T08:18:59.319Z,99300.44
2023-05-21T08:21:47.745Z,99293.22
2023-05-21T08:24:36.898Z,99288.47
2023-05-21T08:27:24.610Z,99259.81
2023-05-21T08:30:13.292Z,99297.31
2023-05-21T08:33:01.349Z,99303.38
2023-05-21T08:35:49.135Z,99290.53
2023-05-21T08:38:36.863Z,99291.00
2023-05-21T08:41:27.089Z,99286.31
2023-05-21T08:44:15.630Z,99298.59
2023-05-21T08:47:05.377Z,99294.22
2023-05-21T08:49:54.229Z,99296.84
2023-05-21T08:52:42.712Z,99299.16
2023-05-21T08:55:32.615Z,99295.41
2023-05-21T08:58:22.321Z,99303.44
2023-05-21T09:01:11.742Z,99306.44
2023-05-21T09:04:12.241Z,99293.97
2023-05-21T09:07:08.405Z,99303.81
2023-05-21T09:09:58.270Z,99307.38
2023-05-21T09:12:48.442Z,99311.72
2023-05-21T09:15:38.333Z,99313.41
2023-05-21T09:18:27.599Z,99314.91
2023-05-21T09:21:26.449Z,99316.09
2023-05-21T09:24:15.151Z,99328.56
2023-05-21T09:27:03.353Z,99136.50
2023-05-21T09:29:51.112Z,99324.00
2023-05-21T09:32:40.791Z,99325.50
2023-05-21T09:35:28.759Z,99323.63
2023-05-21T09:38:16.520Z,99314.03
2023-05-21T09:41:06.840Z,99312.75
2023-05-21T09:43:54.580Z,99324.38
2023-05-21T09:46:42.764Z,99313.78
2023-05-21T09:49:32.039Z,99296.03
2023-05-21T09:52:26.199Z,99302.25
2023-05-21T09:55:15.499Z,99306.63
2023-05-21T09:58:04.753Z,99308.47
2023-05-21T10:00:54.097Z,99309.66
2023-05-21T10:03:43.106Z,99309.84
2023-05-21T10:06:33.858Z,99298.59
2023-05-21T10:09:22.457Z,99307.31
2023-05-21T10:12:11.052Z,99302.22
2023-05-21T10:15:02.321Z,99305.00
2023-05-21T10:17:51.076Z,99300.06
2023-05-21T10:20:39.326Z,99302.28
2023-05-21T10:23:30.362Z,99303.31
2023-05-21T10:26:19.655Z,99293.19
2023-05-21T10:29:09.049Z,99304.56
2023-05-21T10:31:57.530Z,99309.28
2023-05-21T10:34:47.148Z,99295.59
2023-05-21T10:37:35.267Z,99301.94
2023-05-21T10:40:24.586Z,99298.22
2023-05-21T10:43:35.198Z,99302.06
2023-05-21T10:47:17.804Z,99308.09
2023-05-21T10:50:30.142Z,99303.38
2023-05-21T10:53:26.410Z,99300.41
2023-05-21T10:56:24.196Z,99305.41
2023-05-21T10:59:21.975Z,99304.84
2023-05-21T11:02:12.663Z,99302.44
2023-05-21T11:05:01.209Z,99308.94
2023-05-21T11:07:56.275Z,99303.06
2023-05-21T11:10:45.320Z,99305.13
2023-05-21T11:13:49.367Z,99303.16
2023-05-21T11:16:37.569Z,99307.97
2023-05-21T11:19:36.015Z,99309.66
2023-05-21T11:22:25.496Z,99307.78
2023-05-21T11:25:13.647Z,99303.06
2023-05-21T11:28:06.647Z,99298.56
2023-05-21T11:31:24.622Z,99300.00
2023-05-21T11:34:16.415Z,99306.56
2023-05-21T11:37:30.048Z,99285.75
2023-05-21T11:40:26.065Z,99290.09
2023-05-21T11:43:14.012Z,99292.91
2023-05-21T11:46:02.096Z,99293.56
2023-05-21T11:48:53.809Z,99294.75
2023-05-21T11:51:42.049Z,99288.34
2023-05-21T11:54:34.292Z,99277.44
2023-05-21T11:57:22.978Z,99280.16
2023-05-21T12:00:16.453Z,99247.19
2023-05-21T12:03:05.979Z,99266.91
2023-05-21T12:05:55.282Z,99271.53
2023-05-21T12:08:43.214Z,99266.78
2023-05-21T12:11:31.240Z,99235.72
2023-05-21T12:14:19.179Z,99263.69
2023-05-21T12:17:08.117Z,99265.38
2023-05-21T12:19:56.999Z,99257.53
2023-05-21T12:22:46.662Z,99256.06
2023-05-21T12:25:34.535Z,99259.47
2023-05-21T12:28:22.595Z,99247.38
2023-05-21T12:31:16.247Z,99250.84
2023-05-21T12:34:04.039Z,99231.94
2023-05-21T12:36:52.075Z,99237.78
2023-05-21T12:39:42.001Z,99241.63
2023-05-21T12:42:31.106Z,99245.91
2023-05-21T12:45:21.100Z,99235.13
2023-05-21T12:48:09.262Z,99230.44
2023-05-21T12:51:00.224Z,99238.16
2023-05-21T12:53:48.423Z,99226.97
2023-05-21T12:56:46.865Z,99233.91
2023-05-21T12:59:51.481Z,99235.13
2023-05-21T13:02:41.697Z,99211.81
2023-05-21T13:05:29.953Z,99235.41
2023-05-21T13:08:17.898Z,99229.16
2023-05-21T13:11:05.756Z,99211.00
2023-05-21T13:13:54.764Z,99228.63
2023-05-21T13:16:42.422Z,99225.22
2023-05-21T13:19:30.335Z,99226.28
2023-05-21T13:22:18.197Z,99226.31
2023-05-21T13:25:07.099Z,99210.63
2023-05-21T13:27:55.353Z,99214.41
2023-05-21T13:30:44.429Z,99215.09
2023-05-21T13:33:32.882Z,99217.81
2023-05-21T13:36:20.740Z,99207.59
2023-05-21T13:39:08.693Z,99212.06
2023-05-21T13:41:56.372Z,99212.25
2023-05-21T13:44:44.139Z,99207.94
2023-05-21T13:47:33.653Z,99207.47
2023-05-21T13:50:21.447Z,99202.25
2023-05-21T13:53:09.591Z,99205.66
2023-05-21T13:55:57.318Z,99201.09
2023-05-21T13:58:46.037Z,99192.31
2023-05-21T14:01:33.854Z,99195.88
2023-05-21T14:04:23.154Z,99197.16
2023-05-21T14:07:12.074Z,99189.25
2023-05-21T14:09:59.790Z,99192.78
2023-05-21T14:12:47.563Z,99179.44
2023-05-21T14:15:35.655Z,99178.25
2023-05-21T14:18:23.549Z,99178.06
2023-05-21T14:21:12.958Z,99180.16
2023-05-21T14:24:00.690Z,99178.50
2023-05-21T14:26:48.436Z,99173.94
2023-05-21T14:29:36.076Z,99179.31
2023-05-21T14:32:23.970Z,99170.16
2023-05-21T14:35:11.988Z,99171.44
2023-05-21T14:38:01.088Z,99169.72
2023-05-21T14:40:48.838Z,99165.56
2023-05-21T14:43:36.750Z,99164.31
2023-05-21T14:46:24.675Z,99167.09
2023-05-21T14:49:13.373Z,99149.97
2023-05-21T14:52:01.190Z,99163.97
2023-05-21T14:54:50.325Z,99170.00
2023-05-21T14:57:38.021Z,99156.84
2023-05-21T15:00:25.851Z,99153.38
2023-05-21T15:03:13.910Z,99154.22
2023-05-21T15:06:01.729Z,99155.88
2023-05-21T15:08:49.535Z,99131.09
2023-05-21T15:11:39.866Z,99143.19
2023-05-21T15:14:27.576Z,99147.56
2023-05-21T15:17:15.334Z,99159.41
2023-05-21T15:20:04.869Z,99130.47
2023-05-21T15:22:56.910Z,99130.66
2023-05-21T15:25:52.726Z,99156.75
2023-05-21T15:28:41.752Z,99154.44
2023-05-21T15:31:29.436Z,99156.50
2023-05-21T15:34:18.128Z,99161.72
2023-05-21T15:37:06.232Z,99145.84
2023-05-21T15:39:54.158Z,99154.78
2023-05-21T15:42:41.881Z,99142.72
2023-05-21T15:45:30.951Z,99156.03
2023-05-21T15:48:22.580Z,99149.31
2023-05-21T15:51:10.404Z,99144.75
2023-05-21T15:53:58.048Z,99147.91
2023-05-21T15:56:47.841Z,99152.22
2023-05-21T15:59:35.545Z,99147.66
2023-05-21T16:02:24.668Z,99153.03
2023-05-21T16:05:12.559Z,99159.47
2023-05-21T16:08:00.397Z,99163.44
2023-05-21T16:10:48.182Z,99162.16
2023-05-21T16:13:35.912Z,99158.44
2023-05-21T16:16:24.906Z,99166.34
2023-05-21T16:19:14.205Z,99171.50
2023-05-21T16:22:02.090Z,99169.59
2023-05-21T16:24:49.802Z,99153.09
2023-05-21T16:27:37.733Z,99173.78
2023-05-21T16:30:25.444Z,99169.41
2023-05-21T16:33:13.422Z,99176.84
2023-05-21T16:36:02.826Z,99168.72
2023-05-21T16:38:50.638Z,99114.00
2023-05-21T16:41:38.376Z,99168.28
2023-05-21T16:44:26.253Z,99105.59
2023-05-21T16:47:14.158Z,99165.13
2023-05-21T16:50:01.947Z,99171.75
2023-05-21T16:52:51.064Z,99171.31
2023-05-21T16:55:39.708Z,99172.78
2023-05-21T16:58:27.723Z,99165.25
2023-05-21T17:01:15.641Z,99168.75
2023-05-21T17:04:03.709Z,99168.09
2023-05-21T17:06:51.745Z,99183.28
2023-05-21T17:09:40.901Z,99186.75
2023-05-21T17:12:28.661Z,99190.03
2023-05-21T17:15:16.409Z,99192.94
2023-05-21T17:18:04.358Z,99193.72
2023-05-21T17:20:52.077Z,99187.44
2023-05-21T17:23:39.804Z,99194.72
2023-05-21T17:26:28.976Z,99196.94
2023-05-21T17:29:19.930Z,99192.97
2023-05-21T17:32:08.085Z,99199.41
2023-05-21T17:34:55.940Z,99200.03
2023-05-21T17:37:43.679Z,99198.53
2023-05-21T17:40:31.475Z,99193.94
2023-05-21T17:43:20.685Z,99202.63
2023-05-21T17:46:08.614Z,99200.13
2023-05-21T17:48:56.500Z,99202.16
2023-05-21T17:51:44.641Z,99203.34
2023-05-21T17:54:32.653Z,99206.22
2023-05-21T17:57:21.799Z,99202.13
2023-05-21T18:00:12.147Z,99201.97
2023-05-21T18:02:59.943Z,99191.47
2023-05-21T18:05:47.783Z,99214.91
2023-05-21T18:08:35.487Z,99210.22
2023-05-21T18:11:24.324Z,99215.56
2023-05-21T18:14:12.101Z,99212.59
2023-05-21T18:17:01.634Z,99223.47
2023-05-21T18:19:49.540Z,99218.00
2023-05-21T18:22:37.450Z,99221.91
2023-05-21T18:25:25.284Z,99225.38
2023-05-21T18:28:13.072Z,99230.13
2023-05-21T18:31:03.846Z,99219.00
2023-05-21T18:33:53.290Z,99224.00
2023-05-21T18:36:41.132Z,99235.38
2023-05-21T18:39:29.186Z,99220.09
2023-05-21T18:42:17.116Z,99244.09
2023-05-21T18:45:08.789Z,99245.22
2023-05-21T18:47:56.894Z,99243.09
2023-05-21T18:50:46.399Z,99234.91
2023-05-21T18:53:34.568Z,99246.91
2023-05-21T18:56:22.934Z,99251.44
2023-05-21T18:59:10.803Z,99258.91
2023-05-21T19:01:58.667Z,99259.28
2023-05-21T19:04:46.896Z,99249.03
2023-05-21T19:07:36.370Z,99266.59
2023-05-21T19:10:24.210Z,99264.66
2023-05-21T19:13:12.105Z,99260.38
2023-05-21T19:15:59.944Z,99260.84
2023-05-21T19:18:48.008Z,99276.28
2023-05-21T19:21:36.002Z,99274.97
2023-05-21T19:24:25.514Z,99270.34
2023-05-21T19:27:13.363Z,99267.56
2023-05-21T19:30:01.338Z,99274.72
2023-05-21T19:32:51.113Z,99278.81
2023-05-21T19:35:39.186Z,99278.53
2023-05-21T19:38:27.275Z,99274.25
2023-05-21T19:41:16.640Z,99275.25
2023-05-21T19:44:04.693Z,99269.31
2023-05-21T19:46:52.683Z,99271.38
2023-05-21T19:49:40.553Z,99272.19
2023-05-21T19:52:28.337Z,99264.69
2023-05-21T19:55:20.457Z,99275.00
2023-05-21T19:58:13.379Z,99274.06
2023-05-21T20:01:01.641Z,99281.88
2023-05-21T20:03:49.767Z,99272.59
2023-05-21T20:06:38.098Z,99279.91
2023-05-21T20:09:28.632Z,99289.69
2023-05-21T20:12:16.608Z,99275.47
2023-05-21T20:15:08.183Z,99276.78
2023-05-21T20:17:59.181Z,99268.69
2023-05-21T20:20:47.400Z,99283.47
2023-05-21T20:23:38.421Z,99291.09
2023-05-21T20:26:27.184Z,99287.00
2023-05-21T20:29:15.212Z,99290.97
2023-05-21T20:32:04.569Z,99290.25
2023-05-21T20:35:02.832Z,99281.50
2023-05-21T20:37:52.650Z,99289.78
2023-05-21T20:40:40.503Z,99287.19
2023-05-21T20:43:28.360Z,99292.19
2023-05-21T20:46:18.547Z,99281.03
2023-05-21T20:49:08.170Z,99290.53
2023-05-21T20:51:56.168Z,99296.28
2023-05-21T20:54:46.633Z,99295.16
2023-05-21T20:57:34.714Z,99289.22
2023-05-21T21:00:22.745Z,99268.19
2023-05-21T21:03:11.995Z,99292.56
2023-05-21T21:06:02.061Z,99289.09
2023-05-21T21:08:50.175Z,99288.19
2023-05-21T21:11:37.964Z,99292.34
2023-05-21T21:14:25.739Z,99286.59
2023-05-21T21:17:13.501Z,99287.44
2023-05-21T21:20:01.318Z,99289.22
2023-05-21T21:22:51.694Z,99269.72
2023-05-21T21:25:39.665Z,99282.41
2023-05-21T21:28:27.459Z,99277.72
2023-05-21T21:31:17.583Z,99270.44
2023-05-21T21:34:05.547Z,99279.91
2023-05-21T21:36:56.168Z,99265.72
2023-05-21T21:39:45.229Z,99254.63
2023-05-21T21:42:32.950Z,99262.56
2023-05-21T21:45:20.995Z,99256.75
2023-05-21T21:48:08.782Z,99251.34
2023-05-21T21:50:56.955Z,99252.56
2023-05-21T21:53:44.778Z,99258.63
2023-05-21T21:56:33.856Z,99251.66
2023-05-21T21:59:22.475Z,99247.34
2023-05-21T22:02:10.204Z,99247.16
2023-05-21T22:04:58.127Z,99259.06
2023-05-21T22:07:47.099Z,99256.28
2023-05-21T22:10:38.243Z,99262.63
2023-05-21T22:13:29.891Z,99258.13
2023-05-21T22:16:17.897Z,99262.50
2023-05-21T22:19:05.860Z,99257.88
2023-05-21T22:21:54.159Z,99264.81
2023-05-21T22:24:42.120Z,99267.09
2023-05-21T22:27:29.890Z,99265.88
2023-05-21T22:30:19.289Z,99268.22
2023-05-21T22:33:07.158Z,99268.56
2023-05-21T22:35:54.754Z,99282.44
2023-05-21T22:38:43.523Z,99280.94
2023-05-21T22:41:31.383Z,99290.59
2023-05-21T22:44:19.115Z,99285.75
2023-05-21T22:47:09.514Z,99284.72
2023-05-21T22:49:58.467Z,99276.78
2023-05-21T22:52:46.201Z,99278.72
2023-05-21T22:55:33.901Z,99268.09
2023-05-21T22:58:21.645Z,99260.19
2023-05-21T23:01:09.412Z,99272.91
2023-05-21T23:03:58.534Z,99272.16
2023-05-21T23:06:46.225Z,99272.16
2023-05-21T23:09:33.959Z,99277.53
2023-05-21T23:12:21.634Z,99272.63
2023-05-21T23:15:10.887Z,99258.16
2023-05-21T23:17:59.599Z,99269.56
2023-05-21T23:20:48.748Z,99262.03
2023-05-21T23:23:36.531Z,99258.75
2023-05-21T23:26:25.706Z,99257.34
2023-05-21T23:29:13.563Z,99254.06
2023-05-21T23:32:01.950Z,99255.91
2023-05-21T23:34:49.861Z,99243.78
2023-05-21T23:37:39.029Z,99255.28
2023-05-21T23:40:26.664Z,99260.28
2023-05-21T23:43:14.383Z,99253.22
2023-05-21T23:46:02.253Z,99253.88
2023-05-21T23:48:50.036Z,99257.28
2023-05-21T23:51:37.785Z,99253.28
2023-05-21T23:54:26.890Z,99249.25
2023-05-21T23:57:14.652Z,99243.69
